Wetterdaten: Woche 03.08.15 - 09.08.15 (KW32)
Datum Zeit Temp. A. Feuchte A. Luftdruck Regen Wind Richtung Taupunkt Windchill Windben
03.08.2015 00:00 18,6 C 78 % 1019,0 hPa 0,0 l/m 0,0 km/h N 14,7 C 18,6 C 0,0 km/h
03.08.2015 01:00 18,3 C 79 % 1018,9 hPa 0,0 l/m 0,3 km/h N 14,5 C 18,3 C 3,2 km/h
03.08.2015 02:00 18,2 C 79 % 1018,2 hPa 0,0 l/m 0,5 km/h N 14,4 C 18,2 C 4,4 km/h
03.08.2015 03:00 18,1 C 79 % 1018,6 hPa 0,0 l/m 0,1 km/h N 14,3 C 18,1 C 2,0 km/h
03.08.2015 04:00 17,6 C 80 % 1018,3 hPa 0,0 l/m 0,0 km/h N 14,1 C 17,6 C 0,4 km/h
03.08.2015 05:00 17,6 C 80 % 1018,3 hPa 0,0 l/m 0,0 km/h N 14,1 C 17,6 C 0,8 km/h
03.08.2015 06:00 17,7 C 81 % 1018,6 hPa 0,0 l/m 0,0 km/h N 14,4 C 17,7 C 0,0 km/h
03.08.2015 07:00 18,3 C 81 % 1018,8 hPa 0,0 l/m 0,0 km/h N 14,9 C 18,3 C 0,0 km/h
03.08.2015 08:00 19,8 C 76 % 1018,7 hPa 0,0 l/m 3,0 km/h N 15,4 C 19,8 C 7,6 km/h
03.08.2015 09:00 21,3 C 73 % 1018,6 hPa 0,0 l/m 3,1 km/h N 16,2 C 21,3 C 8,4 km/h
03.08.2015 10:00 22,5 C 69 % 1018,4 hPa 0,0 l/m 1,6 km/h N 16,6 C 22,5 C 7,2 km/h
03.08.2015 11:00 24,0 C 67 % 1018,3 hPa 0,0 l/m 3,3 km/h N 17,4 C 24,0 C 9,7 km/h
03.08.2015 12:00 25,5 C 67 % 1018,3 hPa 0,0 l/m 2,4 km/h N 19,0 C 25,5 C 11,3 km/h
03.08.2015 13:00 27,1 C 61 % 1018,0 hPa 0,0 l/m 1,7 km/h N 18,9 C 27,1 C 8,4 km/h
03.08.2015 14:00 28,7 C 55 % 1017,5 hPa 0,0 l/m 1,6 km/h N 18,6 C 28,7 C 9,3 km/h
03.08.2015 15:00 28,7 C 53 % 1017,1 hPa 0,0 l/m 1,1 km/h N 18,2 C 28,7 C 10,0 km/h
03.08.2015 16:00 28,1 C 54 % 1016,7 hPa 0,0 l/m 1,0 km/h N 17,9 C 28,1 C 8,0 km/h
03.08.2015 17:00 28,2 C 53 % 1016,3 hPa 0,0 l/m 1,3 km/h N 17,6 C 28,2 C 6,4 km/h
03.08.2015 18:00 28,9 C 53 % 1016,1 hPa 0,0 l/m 0,5 km/h N 18,4 C 28,9 C 4,8 km/h
03.08.2015 19:00 28,9 C 54 % 1015,9 hPa 0,0 l/m 0,1 km/h N 18,5 C 28,9 C 2,4 km/h
03.08.2015 20:00 27,1 C 59 % 1015,9 hPa 0,0 l/m 0,0 km/h N 18,3 C 27,1 C 0,0 km/h
03.08.2015 21:00 23,9 C 68 % 1016,4 hPa 0,0 l/m 0,0 km/h N 17,6 C 23,9 C 0,0 km/h
03.08.2015 22:00 21,6 C 74 % 1016,5 hPa 0,0 l/m 0,0 km/h N 16,9 C 21,6 C 0,0 km/h
03.08.2015 23:00 20,2 C 78 % 1016,7 hPa 0,0 l/m 0,0 km/h N 16,2 C 20,2 C 0,0 km/h
04.08.2015 00:00 19,3 C 81 % 1016,4 hPa 0,0 l/m 0,0 km/h N 15,8 C 19,3 C 0,0 km/h
04.08.2015 01:00 18,6 C 81 % 1016,1 hPa 0,0 l/m 0,0 km/h N 15,3 C 18,6 C 0,0 km/h
04.08.2015 02:00 18,1 C 81 % 1015,7 hPa 0,0 l/m 0,0 km/h N 14,8 C 18,1 C 0,0 km/h
04.08.2015 03:00 17,8 C 81 % 1015,4 hPa 0,0 l/m 0,0 km/h N 14,5 C 17,8 C 0,0 km/h
04.08.2015 04:00 17,4 C 81 % 1015,1 hPa 0,0 l/m 0,0 km/h N 14,1 C 17,4 C 0,0 km/h
04.08.2015 05:00 16,9 C 81 % 1015,2 hPa 0,0 l/m 0,0 km/h N 13,5 C 16,9 C 0,0 km/h
04.08.2015 06:00 16,8 C 80 % 1015,5 hPa 0,0 l/m 0,0 km/h N 13,3 C 16,8 C 0,0 km/h
04.08.2015 07:00 18,0 C 78 % 1015,4 hPa 0,0 l/m 0,0 km/h N 14,1 C 18,0 C 0,4 km/h
04.08.2015 08:00 20,4 C 78 % 1015,2 hPa 0,0 l/m 0,3 km/h N 16,3 C 20,4 C 4,8 km/h
04.08.2015 09:00 24,8 C 72 % 1014,8 hPa 0,0 l/m 0,9 km/h N 19,2 C 24,8 C 6,4 km/h
04.08.2015 10:00 28,4 C 61 % 1014,4 hPa 0,0 l/m 1,0 km/h N 20,2 C 28,4 C 6,8 km/h
04.08.2015 11:00 30,7 C 54 % 1013,7 hPa 0,0 l/m 2,1 km/h N 20,4 C 30,7 C 10,5 km/h
04.08.2015 12:00 32,1 C 49 % 1013,2 hPa 0,0 l/m 3,7 km/h N 20,1 C 32,1 C 15,7 km/h
04.08.2015 13:00 31,9 C 52 % 1012,6 hPa 0,0 l/m 4,2 km/h N 20,6 C 31,9 C 17,7 km/h
04.08.2015 14:00 32,8 C 46 % 1012,0 hPa 0,0 l/m 4,3 km/h N 19,5 C 32,8 C 17,7 km/h
04.08.2015 15:00 32,6 C 44 % 1011,4 hPa 0,0 l/m 5,5 km/h N 18,8 C 32,6 C 17,7 km/h
04.08.2015 16:00 31,8 C 45 % 1011,2 hPa 0,0 l/m 5,6 km/h N 18,3 C 31,8 C 17,7 km/h
04.08.2015 17:00 31,7 C 44 % 1010,8 hPa 0,0 l/m 4,3 km/h N 17,8 C 31,7 C 14,5 km/h
04.08.2015 18:00 31,6 C 44 % 1010,9 hPa 0,0 l/m 3,3 km/h N 17,8 C 31,6 C 14,1 km/h
04.08.2015 19:00 30,9 C 47 % 1011,0 hPa 0,0 l/m 1,3 km/h N 18,3 C 30,9 C 9,3 km/h
04.08.2015 20:00 28,9 C 55 % 1011,4 hPa 0,0 l/m 0,3 km/h N 18,9 C 28,9 C 4,8 km/h
04.08.2015 21:00 27,0 C 61 % 1011,8 hPa 0,0 l/m 0,1 km/h N 18,8 C 27,0 C 2,0 km/h
04.08.2015 22:00 24,3 C 70 % 1012,1 hPa 0,0 l/m 0,1 km/h N 18,4 C 24,3 C 0,8 km/h
04.08.2015 23:00 22,2 C 76 % 1012,4 hPa 0,0 l/m 0,0 km/h N 17,7 C 22,2 C 0,8 km/h
05.08.2015 00:00 21,5 C 77 % 1012,8 hPa 0,0 l/m 0,3 km/h N 17,3 C 21,5 C 2,8 km/h
05.08.2015 01:00 21,7 C 75 % 1013,1 hPa 0,0 l/m 0,6 km/h N 17,0 C 21,7 C 9,6 km/h
05.08.2015 02:00 25,4 C 57 % 1013,0 hPa 0,0 l/m 10,0 km/h N 16,1 C 24,7 C 33,0 km/h
05.08.2015 03:00 25,5 C 54 % 1013,4 hPa 0,0 l/m 11,8 km/h N 15,6 C 24,5 C 29,8 km/h
05.08.2015 04:00 25,0 C 56 % 1013,7 hPa 0,0 l/m 11,6 km/h N 15,6 C 23,9 C 30,2 km/h
05.08.2015 05:00 24,5 C 58 % 1014,3 hPa 0,0 l/m 11,6 km/h N 15,5 C 23,3 C 32,2 km/h
05.08.2015 06:00 24,1 C 59 % 1015,2 hPa 0,0 l/m 4,7 km/h N 15,6 C 24,1 C 17,7 km/h
05.08.2015 07:00 23,8 C 61 % 1016,0 hPa 0,0 l/m 6,9 km/h N 15,7 C 23,5 C 21,3 km/h
05.08.2015 08:00 24,1 C 61 % 1016,5 hPa 0,0 l/m 9,6 km/h N 16,0 C 23,3 C 26,1 km/h
05.08.2015 09:00 25,2 C 60 % 1016,8 hPa 0,0 l/m 10,2 km/h N 16,8 C 24,4 C 22,5 km/h
05.08.2015 10:00 26,4 C 58 % 1016,9 hPa 0,0 l/m 9,3 km/h N 17,3 C 25,8 C 20,9 km/h
05.08.2015 11:00 27,6 C 55 % 1016,9 hPa 0,0 l/m 8,1 km/h N 17,6 C 27,3 C 20,9 km/h
05.08.2015 12:00 28,8 C 52 % 1016,4 hPa 0,0 l/m 6,1 km/h N 17,7 C 28,7 C 17,7 km/h
05.08.2015 13:00 30,1 C 49 % 1015,7 hPa 0,0 l/m 4,5 km/h N 18,2 C 30,1 C 16,9 km/h
05.08.2015 14:00 31,0 C 46 % 1015,0 hPa 0,0 l/m 4,7 km/h N 18,0 C 31,0 C 16,5 km/h
05.08.2015 15:00 31,4 C 43 % 1014,4 hPa 0,0 l/m 3,8 km/h N 17,3 C 31,4 C 12,9 km/h
05.08.2015 16:00 31,6 C 42 % 1014,0 hPa 0,0 l/m 2,7 km/h N 17,2 C 31,6 C 12,1 km/h
05.08.2015 17:00 31,8 C 40 % 1013,4 hPa 0,0 l/m 1,8 km/h N 16,6 C 31,8 C 9,7 km/h
05.08.2015 18:00 32,5 C 41 % 1013,2 hPa 0,0 l/m 0,2 km/h N 17,3 C 32,5 C 3,2 km/h
05.08.2015 19:00 32,2 C 41 % 1013,5 hPa 0,0 l/m 0,5 km/h N 17,2 C 32,2 C 6,0 km/h
05.08.2015 20:00 30,3 C 47 % 1014,0 hPa 0,0 l/m 0,1 km/h N 17,6 C 30,3 C 1,6 km/h
05.08.2015 21:00 27,1 C 57 % 1014,6 hPa 0,0 l/m 0,2 km/h N 17,8 C 27,1 C 2,4 km/h
05.08.2015 22:00 25,1 C 65 % 1014,6 hPa 0,0 l/m 0,0 km/h N 18,1 C 25,1 C 0,0 km/h
05.08.2015 23:00 23,0 C 72 % 1015,0 hPa 0,0 l/m 0,0 km/h N 17,6 C 23,0 C 0,0 km/h
06.08.2015 00:00 21,7 C 76 % 1015,1 hPa 0,0 l/m 0,0 km/h N 17,2 C 21,7 C 0,4 km/h
06.08.2015 01:00 20,5 C 79 % 1015,0 hPa 0,0 l/m 0,0 km/h N 16,7 C 20,5 C 0,0 km/h
06.08.2015 02:00 19,8 C 80 % 1015,1 hPa 0,0 l/m 0,0 km/h N 16,2 C 19,8 C 0,4 km/h
06.08.2015 03:00 19,2 C 81 % 1015,1 hPa 0,0 l/m 0,0 km/h N 15,9 C 19,2 C 0,0 km/h
06.08.2015 04:00 18,7 C 81 % 1015,3 hPa 0,0 l/m 0,0 km/h N 15,3 C 18,7 C 0,0 km/h
06.08.2015 05:00 18,1 C 81 % 1015,6 hPa 0,0 l/m 0,0 km/h N 14,7 C 18,1 C 0,0 km/h
06.08.2015 06:00 17,9 C 80 % 1015,9 hPa 0,0 l/m 0,0 km/h N 14,4 C 17,9 C 0,0 km/h
06.08.2015 07:00 19,2 C 79 % 1016,0 hPa 0,0 l/m 0,1 km/h N 15,3 C 19,2 C 0,8 km/h
06.08.2015 08:00 22,0 C 79 % 1016,1 hPa 0,0 l/m 0,1 km/h N 18,1 C 22,0 C 1,6 km/h
06.08.2015 09:00 26,7 C 66 % 1016,0 hPa 0,0 l/m 0,7 km/h N 19,8 C 26,7 C 5,6 km/h
06.08.2015 10:00 30,1 C 57 % 1015,9 hPa 0,0 l/m 1,0 km/h N 20,5 C 30,1 C 8,0 km/h
06.08.2015 11:00 32,0 C 51 % 1015,6 hPa 0,0 l/m 1,3 km/h N 20,6 C 32,0 C 8,4 km/h
06.08.2015 12:00 33,8 C 47 % 1015,3 hPa 0,0 l/m 1,6 km/h N 20,9 C 33,8 C 11,7 km/h
06.08.2015 13:00 34,8 C 41 % 1014,9 hPa 0,0 l/m 1,1 km/h N 19,7 C 34,8 C 7,6 km/h
06.08.2015 14:00 35,6 C 38 % 1014,5 hPa 0,0 l/m 1,7 km/h N 18,8 C 35,6 C 11,3 km/h
06.08.2015 15:00 34,8 C 37 % 1014,3 hPa 0,0 l/m 1,8 km/h N 17,8 C 34,8 C 9,3 km/h
06.08.2015 16:00 34,0 C 37 % 1014,2 hPa 0,0 l/m 0,7 km/h N 17,2 C 34,0 C 6,4 km/h
06.08.2015 17:00 33,9 C 36 % 1014,2 hPa 0,0 l/m 1,0 km/h N 16,6 C 33,9 C 6,8 km/h
06.08.2015 18:00 33,7 C 36 % 1014,1 hPa 0,0 l/m 0,9 km/h N 16,5 C 33,7 C 7,6 km/h
06.08.2015 19:00 33,1 C 37 % 1014,2 hPa 0,0 l/m 0,3 km/h N 16,2 C 33,1 C 4,4 km/h
06.08.2015 20:00 31,0 C 44 % 1014,5 hPa 0,0 l/m 0,0 km/h N 17,1 C 31,0 C 0,0 km/h
06.08.2015 21:00 26,9 C 55 % 1014,8 hPa 0,0 l/m 0,0 km/h N 17,0 C 26,9 C 0,0 km/h
06.08.2015 22:00 24,6 C 62 % 1015,1 hPa 0,0 l/m 0,0 km/h N 16,7 C 24,6 C 0,0 km/h
06.08.2015 23:00 23,1 C 68 % 1015,3 hPa 0,0 l/m 0,0 km/h N 16,9 C 23,1 C 0,0 km/h
07.08.2015 00:00 22,2 C 71 % 1015,2 hPa 0,0 l/m 0,0 km/h N 16,7 C 22,2 C 0,0 km/h
07.08.2015 01:00 21,7 C 72 % 1015,2 hPa 0,0 l/m 0,0 km/h N 16,5 C 21,7 C 0,0 km/h
07.08.2015 02:00 21,2 C 74 % 1015,0 hPa 0,0 l/m 0,0 km/h N 16,4 C 21,2 C 0,0 km/h
07.08.2015 03:00 20,8 C 75 % 1015,1 hPa 0,0 l/m 0,2 km/h N 16,1 C 20,8 C 2,8 km/h
07.08.2015 04:00 20,8 C 74 % 1015,3 hPa 0,0 l/m 0,2 km/h N 15,9 C 20,8 C 2,4 km/h
07.08.2015 05:00 20,3 C 76 % 1015,4 hPa 0,0 l/m 0,0 km/h N 15,8 C 20,3 C 0,4 km/h
07.08.2015 06:00 19,6 C 78 % 1016,0 hPa 0,0 l/m 0,0 km/h N 15,6 C 19,6 C 0,0 km/h
07.08.2015 07:00 20,3 C 79 % 1016,2 hPa 0,0 l/m 0,0 km/h N 16,5 C 20,3 C 0,0 km/h
07.08.2015 08:00 23,5 C 72 % 1016,3 hPa 0,0 l/m 0,0 km/h N 18,1 C 23,5 C 0,8 km/h
07.08.2015 09:00 29,0 C 55 % 1016,3 hPa 0,0 l/m 0,1 km/h N 18,9 C 29,0 C 3,2 km/h
07.08.2015 10:00 32,5 C 46 % 1016,3 hPa 0,0 l/m 1,0 km/h N 19,3 C 32,5 C 6,8 km/h
07.08.2015 11:00 34,5 C 42 % 1016,1 hPa 0,0 l/m 1,3 km/h N 19,7 C 34,5 C 7,6 km/h
07.08.2015 12:00 36,0 C 39 % 1015,6 hPa 0,0 l/m 1,9 km/h N 19,8 C 36,0 C 9,6 km/h
07.08.2015 13:00 36,8 C 36 % 1015,4 hPa 0,0 l/m 2,5 km/h N 19,2 C 36,8 C 12,5 km/h
07.08.2015 14:00 36,8 C 34 % 1015,1 hPa 0,0 l/m 2,4 km/h N 18,4 C 36,8 C 14,1 km/h
07.08.2015 15:00 36,2 C 35 % 1014,8 hPa 0,0 l/m 2,5 km/h N 18,0 C 36,2 C 12,9 km/h
07.08.2015 16:00 35,1 C 37 % 1014,7 hPa 0,0 l/m 3,2 km/h N 18,3 C 35,1 C 12,9 km/h
07.08.2015 17:00 34,6 C 38 % 1014,4 hPa 0,0 l/m 1,6 km/h N 18,1 C 34,6 C 10,1 km/h
07.08.2015 18:00 34,1 C 38 % 1014,5 hPa 0,0 l/m 1,3 km/h N 17,9 C 34,1 C 10,9 km/h
07.08.2015 19:00 33,4 C 41 % 1014,4 hPa 0,0 l/m 0,9 km/h N 18,3 C 33,4 C 8,0 km/h
07.08.2015 20:00 31,4 C 47 % 1014,7 hPa 0,0 l/m 0,2 km/h N 18,5 C 31,4 C 3,6 km/h
07.08.2015 21:00 29,4 C 53 % 1015,1 hPa 0,0 l/m 0,1 km/h N 18,7 C 29,4 C 3,6 km/h
07.08.2015 22:00 27,3 C 61 % 1015,3 hPa 0,0 l/m 0,0 km/h N 19,0 C 27,3 C 0,0 km/h
07.08.2015 23:00 25,4 C 66 % 1015,4 hPa 0,0 l/m 0,0 km/h N 18,6 C 25,4 C 0,4 km/h
08.08.2015 00:00 24,4 C 70 % 1015,5 hPa 0,0 l/m 0,0 km/h N 18,6 C 24,4 C 0,4 km/h
08.08.2015 01:00 23,4 C 72 % 1015,3 hPa 0,0 l/m 0,1 km/h N 18,0 C 23,4 C 2,0 km/h
08.08.2015 02:00 22,9 C 73 % 1015,2 hPa 0,0 l/m 0,0 km/h N 17,8 C 22,9 C 0,0 km/h
08.08.2015 03:00 21,5 C 77 % 1015,3 hPa 0,0 l/m 0,0 km/h N 17,2 C 21,5 C 0,0 km/h
08.08.2015 04:00 20,5 C 79 % 1015,5 hPa 0,0 l/m 0,0 km/h N 16,8 C 20,5 C 0,0 km/h
08.08.2015 05:00 19,7 C 80 % 1015,8 hPa 0,0 l/m 0,0 km/h N 16,2 C 19,7 C 0,0 km/h
08.08.2015 06:00 19,4 C 80 % 1016,1 hPa 0,0 l/m 0,0 km/h N 15,9 C 19,4 C 0,0 km/h
08.08.2015 07:00 20,9 C 80 % 1016,3 hPa 0,0 l/m 0,2 km/h N 17,3 C 20,9 C 2,8 km/h
08.08.2015 08:00 25,8 C 69 % 1016,2 hPa 0,0 l/m 1,0 km/h N 19,5 C 25,8 C 8,1 km/h
08.08.2015 09:00 29,1 C 59 % 1016,3 hPa 0,0 l/m 1,8 km/h N 20,2 C 29,1 C 8,4 km/h
08.08.2015 10:00 32,5 C 47 % 1015,9 hPa 0,0 l/m 3,5 km/h N 19,6 C 32,5 C 14,1 km/h
08.08.2015 11:00 35,1 C 40 % 1015,7 hPa 0,0 l/m 5,6 km/h N 19,2 C 35,1 C 18,1 km/h
08.08.2015 12:00 36,2 C 34 % 1015,4 hPa 0,0 l/m 5,4 km/h N 17,9 C 36,2 C 17,3 km/h
08.08.2015 13:00 37,3 C 30 % 1015,1 hPa 0,0 l/m 5,9 km/h N 16,8 C 37,3 C 19,3 km/h
08.08.2015 14:00 37,5 C 30 % 1014,7 hPa 0,0 l/m 5,4 km/h N 16,8 C 37,5 C 19,3 km/h
08.08.2015 15:00 36,6 C 31 % 1014,4 hPa 0,0 l/m 5,9 km/h N 16,4 C 36,6 C 18,9 km/h
08.08.2015 16:00 35,8 C 31 % 1014,0 hPa 0,0 l/m 5,6 km/h N 15,8 C 35,8 C 15,7 km/h
08.08.2015 17:00 35,1 C 32 % 1014,0 hPa 0,0 l/m 5,1 km/h N 15,7 C 35,1 C 16,1 km/h
08.08.2015 18:00 34,5 C 32 % 1014,2 hPa 0,0 l/m 3,8 km/h N 15,3 C 34,5 C 14,5 km/h
08.08.2015 19:00 33,5 C 33 % 1014,5 hPa 0,0 l/m 2,5 km/h N 15,1 C 33,5 C 12,5 km/h
08.08.2015 20:00 31,7 C 37 % 1014,8 hPa 0,0 l/m 0,8 km/h N 14,9 C 31,7 C 8,5 km/h
08.08.2015 21:00 29,3 C 45 % 1015,1 hPa 0,0 l/m 0,0 km/h N 16,1 C 29,3 C 0,8 km/h
08.08.2015 22:00 26,1 C 53 % 1015,1 hPa 0,0 l/m 0,0 km/h N 15,8 C 26,1 C 0,0 km/h
08.08.2015 23:00 24,0 C 61 % 1015,2 hPa 0,0 l/m 0,0 km/h N 15,9 C 24,0 C 0,8 km/h
09.08.2015 00:00 24,7 C 57 % 1015,2 hPa 0,0 l/m 0,2 km/h N 15,4 C 24,7 C 3,6 km/h
09.08.2015 01:00 23,9 C 60 % 1015,1 hPa 0,0 l/m 0,0 km/h N 15,6 C 23,9 C 0,8 km/h
09.08.2015 02:00 21,7 C 69 % 1015,2 hPa 0,0 l/m 0,0 km/h N 15,7 C 21,7 C 0,0 km/h
09.08.2015 03:00 21,4 C 69 % 1015,5 hPa 0,0 l/m 0,3 km/h N 15,4 C 21,4 C 2,4 km/h
09.08.2015 04:00 21,1 C 69 % 1015,3 hPa 0,0 l/m 0,1 km/h N 15,1 C 21,1 C 2,0 km/h
09.08.2015 05:00 20,8 C 68 % 1015,4 hPa 0,0 l/m 0,1 km/h N 14,7 C 20,8 C 2,8 km/h
09.08.2015 06:00 20,6 C 71 % 1015,7 hPa 0,0 l/m 0,1 km/h N 15,1 C 20,6 C 1,6 km/h
09.08.2015 07:00 21,1 C 73 % 1015,8 hPa 0,0 l/m 0,1 km/h N 16,0 C 21,1 C 2,4 km/h
09.08.2015 08:00 24,1 C 64 % 1015,8 hPa 0,0 l/m 0,0 km/h N 16,7 C 24,1 C 0,8 km/h
09.08.2015 09:00 29,4 C 51 % 1015,8 hPa 0,0 l/m 0,3 km/h N 18,1 C 29,4 C 4,8 km/h
09.08.2015 10:00 32,2 C 44 % 1015,7 hPa 0,0 l/m 0,6 km/h N 18,2 C 32,2 C 6,4 km/h
09.08.2015 11:00 34,3 C 40 % 1015,2 hPa 0,0 l/m 1,2 km/h N 18,5 C 34,3 C 9,6 km/h
09.08.2015 12:00 36,8 C 28 % 1014,5 hPa 0,0 l/m 3,9 km/h N 14,9 C 36,8 C 15,3 km/h
09.08.2015 13:00 37,1 C 28 % 1014,3 hPa 0,0 l/m 5,5 km/h N 15,2 C 37,1 C 17,3 km/h
09.08.2015 14:00 37,5 C 26 % 1014,0 hPa 0,0 l/m 4,3 km/h N 14,8 C 37,5 C 17,7 km/h
09.08.2015 15:00 36,5 C 28 % 1013,6 hPa 0,0 l/m 4,8 km/h N 14,7 C 36,5 C 18,9 km/h
09.08.2015 16:00 35,2 C 29 % 1013,4 hPa 0,0 l/m 5,4 km/h N 14,3 C 35,2 C 16,5 km/h
09.08.2015 17:00 34,5 C 30 % 1013,2 hPa 0,0 l/m 4,7 km/h N 14,1 C 34,5 C 16,9 km/h
09.08.2015 18:00 33,8 C 31 % 1012,9 hPa 0,0 l/m 3,7 km/h N 14,3 C 33,8 C 12,9 km/h
09.08.2015 19:00 32,3 C 34 % 1012,9 hPa 0,0 l/m 1,7 km/h N 14,2 C 32,3 C 11,7 km/h
09.08.2015 20:00 30,6 C 37 % 1013,0 hPa 0,0 l/m 0,3 km/h N 14,2 C 30,6 C 2,8 km/h
09.08.2015 21:00 27,3 C 47 % 1013,0 hPa 0,0 l/m 0,0 km/h N 14,7 C 27,3 C 0,0 km/h
09.08.2015 22:00 24,4 C 56 % 1013,1 hPa 0,0 l/m 0,0 km/h N 15,1 C 24,4 C 0,4 km/h
09.08.2015 23:00 22,6 C 60 % 1013,6 hPa 0,0 l/m 0,0 km/h N 14,5 C 22,6 C 0,0 km/h
Min-Datum _ 04.08.15 09.08.15 04.08.15 - 03.08.15 - 04.08.15 04.08.15 03.08.15
_ Min-Zeit 06:15 12:30 17:30 - 00:00 - 06:15 06:15 00:00
Minimum _ 16,7 C 25 % 1010,7 hPa - 0,0 km/h - 13,2 C 16,7 C 0,0 km/h
Max-Datum _ 08.08.15 03.08.15 03.08.15 03.08.15 05.08.15 - 04.08.15 08.08.15 05.08.15
_ Max-Zeit 14:30 06:00 00:15 00:00 02:45 - 11:15 14:15 02:30
Maximum _ 37,8 C 81 % 1019,2 hPa 0,0 l/m 13,6 km/h
N
- 21,2 C 37,7 C 38,6 km/h
N
Durchschnitt _ 26,8 C 58 % 1015,1 hPa #0,0 l/m 1,8 km/h N 16,9 C 26,8 C 7,2 km/h